This is the latest recevied weather packets stored in our database for station/object K3XY-2. If no packets are shown the sender has not sent any weather packets the latest 1 day(s).
| Time | Temp. | Humidity | Pressure | Rain* | Wind** | Luminosity | Snow |
|---|---|---|---|---|---|---|---|
| 1778096350 | 17.22° C | 91% | 1006.5 hPa | 0 mm | - | - | - |
| 1778095749 | 16.67° C | 91% | 1006.7 hPa | 0 mm | - | - | - |
| 1778095149 | 16.67° C | 92% | 1006.6 hPa | 0 mm | - | - | - |
| 1778092749 | 16.11° C | 91% | 1007 hPa | 0 mm | - | - | - |
| 1778091549 | 16.11° C | 91% | 1007.4 hPa | 0 mm | - | - | - |
| 1778089149 | 15.56° C | 90% | 1007.4 hPa | 0 mm | - | - | - |
| 1778088549 | 16.11° C | 90% | 1007.4 hPa | 0.25 mm | - | - | - |
| 1778085549 | 16.11° C | 91% | 1007.3 hPa | 1.52 mm | - | - | - |
| 1778084949 | 16.11° C | 91% | 1007.5 hPa | 1.78 mm | - | - | - |
| 1778084349 | 16.11° C | 91% | 1007.6 hPa | 2.29 mm | - | - | - |
| 1778081949 | 15.56° C | 89% | 1008.6 hPa | 2.79 mm | - | - | - |
| 1778081349 | 15.56° C | 89% | 1008.7 hPa | 2.54 mm | - | - | - |
| 1778077749 | 16.67° C | 85% | 1008.4 hPa | 1.02 mm | - | - | - |
| 1778074149 | 17.78° C | 80% | 1008.3 hPa | 0 mm | - | - | - |
| 1778070549 | 18.33° C | 75% | 1008.4 hPa | 0 mm | - | - | - |
| 1778069949 | 18.33° C | 75% | 1008.5 hPa | 0 mm | - | - | - |
| 1778066949 | 17.78° C | 76% | 1008 hPa | 0 mm | - | - | - |
| 1778066349 | 17.78° C | 76% | 1008 hPa | 0 mm | - | - | - |
| 1778065749 | 17.78° C | 76% | 1008 hPa | 0 mm | - | - | - |
| 1778063349 | 17.78° C | 75% | 1007.7 hPa | 0 mm | - | - | - |
| 1778062749 | 17.78° C | 75% | 1007.6 hPa | 0 mm | - | - | - |
| 1778062149 | 18.33° C | 74% | 1007.6 hPa | 0 mm | - | - | - |
| 1778059149 | 18.33° C | 73% | 1007.6 hPa | 0 mm | - | - | - |
| 1778058549 | 18.33° C | 73% | 1007.6 hPa | 0 mm | - | - | - |
| 1778057949 | 18.33° C | 73% | 1007.7 hPa | 0 mm | - | - | - |
* Rain latest hour (hover to see other rain measurements)
** Current wind speed in m/s (hover to see current wind gust speed)